createdAt,value
2023-01-23T00:02:10.000Z,5.26
2023-01-23T00:04:41.337Z,5.20
2023-01-23T00:07:12.708Z,5.19
2023-01-23T00:09:44.311Z,5.21
2023-01-23T00:12:15.932Z,5.25
2023-01-23T00:14:47.611Z,5.25
2023-01-23T00:17:19.069Z,5.24
2023-01-23T00:19:50.433Z,5.24
2023-01-23T00:22:21.937Z,5.23
2023-01-23T00:24:53.413Z,5.17
2023-01-23T00:27:25.108Z,5.13
2023-01-23T00:29:56.470Z,5.06
2023-01-23T00:32:28.168Z,4.95
2023-01-23T00:35:00.805Z,4.90
2023-01-23T00:37:32.551Z,4.91
2023-01-23T00:40:04.194Z,4.91
2023-01-23T00:42:35.347Z,4.86
2023-01-23T00:45:07.628Z,4.86
2023-01-23T00:47:39.066Z,4.89
2023-01-23T00:50:12.139Z,4.92
2023-01-23T00:52:43.588Z,4.93
2023-01-23T00:55:14.931Z,4.91
2023-01-23T00:57:46.358Z,4.86
2023-01-23T01:00:18.885Z,4.83
2023-01-23T01:02:50.950Z,4.80
2023-01-23T01:05:22.689Z,4.74
2023-01-23T01:07:54.166Z,4.72
2023-01-23T01:10:29.654Z,4.73
2023-01-23T01:13:02.210Z,4.72
2023-01-23T01:15:33.764Z,4.66
2023-01-23T01:18:05.474Z,4.56
2023-01-23T01:20:36.861Z,4.50
2023-01-23T01:23:08.067Z,4.48
2023-01-23T01:25:39.433Z,4.49
2023-01-23T01:28:11.039Z,4.49
2023-01-23T01:30:42.562Z,4.48
2023-01-23T01:33:13.848Z,4.45
2023-01-23T01:35:45.172Z,4.41
2023-01-23T01:38:16.545Z,4.41
2023-01-23T01:40:48.011Z,4.42
2023-01-23T01:43:21.231Z,4.39
2023-01-23T01:46:24.529Z,4.38
2023-01-23T01:49:06.167Z,4.40
2023-01-23T01:51:39.892Z,4.38
2023-01-23T01:54:12.635Z,4.35
2023-01-23T01:56:45.896Z,4.30
2023-01-23T01:59:17.213Z,4.24
2023-01-23T02:01:48.961Z,4.20
2023-01-23T02:04:20.466Z,4.17
2023-01-23T02:06:51.901Z,4.15
2023-01-23T02:09:24.740Z,4.16
2023-01-23T02:11:56.071Z,4.15
2023-01-23T02:14:27.544Z,4.12
2023-01-23T02:17:01.184Z,4.08
2023-01-23T02:19:36.315Z,4.09
2023-01-23T02:22:10.203Z,4.12
2023-01-23T02:24:42.894Z,4.13
2023-01-23T02:27:14.338Z,4.08
2023-01-23T02:29:48.526Z,4.03
2023-01-23T02:32:24.529Z,3.97
2023-01-23T02:34:56.393Z,3.90
2023-01-23T02:37:29.902Z,3.88
2023-01-23T02:40:02.959Z,3.86
2023-01-23T02:42:34.390Z,3.85
2023-01-23T02:45:06.454Z,3.87
2023-01-23T02:47:38.055Z,3.91
2023-01-23T02:50:10.274Z,3.97
2023-01-23T02:52:41.682Z,3.99
2023-01-23T02:55:13.038Z,3.99
2023-01-23T02:57:45.293Z,3.99
2023-01-23T03:00:17.395Z,3.98
2023-01-23T03:02:49.582Z,3.97
2023-01-23T03:05:20.999Z,3.95
2023-01-23T03:07:52.351Z,3.95
2023-01-23T03:10:23.854Z,3.93
2023-01-23T03:12:58.417Z,3.90
2023-01-23T03:15:30.943Z,3.90
2023-01-23T03:18:02.245Z,3.90
2023-01-23T03:20:34.831Z,3.93
2023-01-23T03:23:06.358Z,3.91
2023-01-23T03:25:37.824Z,3.90
2023-01-23T03:28:29.075Z,3.91
2023-01-23T03:31:00.457Z,3.89
2023-01-23T03:33:32.092Z,3.87
2023-01-23T03:36:03.844Z,3.88
2023-01-23T03:38:35.206Z,3.88
2023-01-23T03:41:23.810Z,3.89
2023-01-23T03:43:55.297Z,3.90
2023-01-23T03:46:26.954Z,3.92
2023-01-23T03:48:58.628Z,3.94
2023-01-23T03:51:30.236Z,3.94
2023-01-23T03:54:01.675Z,3.95
2023-01-23T03:56:33.105Z,3.98
2023-01-23T03:59:04.709Z,4.00
2023-01-23T04:01:36.664Z,3.99
2023-01-23T04:04:31.266Z,4.00
2023-01-23T04:07:06.844Z,4.00
2023-01-23T04:09:38.216Z,3.95
2023-01-23T04:12:09.846Z,3.93
2023-01-23T04:14:41.939Z,3.89
2023-01-23T04:17:17.064Z,3.88
2023-01-23T04:19:55.613Z,3.85
2023-01-23T04:22:30.335Z,3.80
2023-01-23T04:25:11.676Z,3.78
2023-01-23T04:27:43.579Z,3.73
2023-01-23T04:30:15.407Z,3.72
2023-01-23T04:32:46.873Z,3.68
2023-01-23T04:35:18.135Z,3.66
2023-01-23T04:37:49.305Z,3.65
2023-01-23T04:40:21.255Z,3.63
2023-01-23T04:42:53.225Z,3.62
2023-01-23T04:45:24.461Z,3.62
2023-01-23T04:47:55.602Z,3.64
2023-01-23T04:50:26.992Z,3.66
2023-01-23T04:52:59.157Z,3.66
2023-01-23T04:55:30.730Z,3.67
2023-01-23T04:58:02.323Z,3.68
2023-01-23T05:00:33.675Z,3.70
2023-01-23T05:03:05.268Z,3.72
2023-01-23T05:05:36.848Z,3.71
2023-01-23T05:08:08.738Z,3.68
2023-01-23T05:10:39.887Z,3.65
2023-01-23T05:13:11.180Z,3.63
2023-01-23T05:15:42.766Z,3.66
2023-01-23T05:18:14.472Z,3.68
2023-01-23T05:20:46.003Z,3.69
2023-01-23T05:23:17.216Z,3.67
2023-01-23T05:25:48.660Z,3.64
2023-01-23T05:28:20.309Z,3.56
2023-01-23T05:30:52.065Z,3.47
2023-01-23T05:33:23.599Z,3.41
2023-01-23T05:35:54.818Z,3.36
2023-01-23T05:38:26.136Z,3.32
2023-01-23T05:40:57.679Z,3.29
2023-01-23T05:43:29.397Z,3.31
2023-01-23T05:46:02.229Z,3.31
2023-01-23T05:48:33.838Z,3.35
2023-01-23T05:51:05.584Z,3.38
2023-01-23T05:53:37.470Z,3.42
2023-01-23T05:56:09.992Z,3.41
2023-01-23T05:58:41.686Z,3.40
2023-01-23T06:01:13.070Z,3.38
2023-01-23T06:03:45.335Z,3.37
2023-01-23T06:06:16.754Z,3.32
2023-01-23T06:08:48.398Z,3.28
2023-01-23T06:11:20.099Z,3.29
2023-01-23T06:13:52.226Z,3.25
2023-01-23T06:16:23.653Z,3.19
2023-01-23T06:18:56.209Z,3.18
2023-01-23T06:21:27.742Z,3.15
2023-01-23T06:23:59.824Z,3.10
2023-01-23T06:26:31.162Z,3.05
2023-01-23T06:29:02.516Z,3.05
2023-01-23T06:31:34.104Z,3.09
2023-01-23T06:34:06.017Z,3.12
2023-01-23T06:36:37.483Z,3.13
2023-01-23T06:39:09.075Z,3.11
2023-01-23T06:41:40.381Z,3.04
2023-01-23T06:44:12.148Z,2.97
2023-01-23T06:46:43.701Z,2.94
2023-01-23T06:49:15.471Z,2.95
2023-01-23T06:51:46.876Z,2.97
2023-01-23T06:54:18.772Z,2.98
2023-01-23T06:56:50.596Z,2.97
2023-01-23T06:59:22.234Z,2.96
2023-01-23T07:01:53.985Z,2.92
2023-01-23T07:04:25.684Z,2.85
2023-01-23T07:06:56.958Z,2.81
2023-01-23T07:09:28.754Z,2.81
2023-01-23T07:12:00.418Z,2.82
2023-01-23T07:14:32.338Z,2.83
2023-01-23T07:17:03.794Z,2.80
2023-01-23T07:19:35.323Z,2.76
2023-01-23T07:22:06.859Z,2.75
2023-01-23T07:24:38.636Z,2.72
2023-01-23T07:27:10.023Z,2.69
2023-01-23T07:29:41.366Z,2.64
2023-01-23T07:32:12.636Z,2.62
2023-01-23T07:34:44.263Z,2.58
2023-01-23T07:37:15.699Z,2.56
2023-01-23T07:39:47.426Z,2.58
2023-01-23T07:42:18.761Z,2.63
2023-01-23T07:44:50.181Z,2.67
2023-01-23T07:47:21.496Z,2.74
2023-01-23T07:49:53.178Z,2.79
2023-01-23T07:52:25.608Z,2.81
2023-01-23T07:54:57.068Z,2.82
2023-01-23T07:57:28.360Z,2.87
2023-01-23T08:00:00.020Z,2.89
2023-01-23T08:02:31.733Z,2.87
2023-01-23T08:05:03.591Z,2.83
2023-01-23T08:07:34.965Z,2.80
2023-01-23T08:10:07.352Z,2.83
2023-01-23T08:12:38.860Z,2.84
2023-01-23T08:15:13.227Z,2.81
2023-01-23T08:17:45.013Z,2.82
2023-01-23T08:20:18.785Z,2.85
2023-01-23T08:22:50.402Z,2.83
2023-01-23T08:25:21.823Z,2.81
2023-01-23T08:27:53.306Z,2.77
2023-01-23T08:30:25.296Z,2.76
2023-01-23T08:32:57.564Z,2.78
2023-01-23T08:35:28.906Z,2.78
2023-01-23T08:38:00.623Z,2.76
2023-01-23T08:40:32.118Z,2.72
2023-01-23T08:43:03.596Z,2.67
2023-01-23T08:45:34.857Z,2.61
2023-01-23T08:48:06.379Z,2.56
2023-01-23T08:50:38.114Z,2.54
2023-01-23T08:53:09.776Z,2.58
2023-01-23T08:55:42.378Z,2.64
2023-01-23T08:58:14.298Z,2.64
2023-01-23T09:00:48.367Z,2.57
2023-01-23T09:03:20.019Z,2.52
2023-01-23T09:05:51.578Z,2.50
2023-01-23T09:08:23.246Z,2.52
2023-01-23T09:10:55.267Z,2.52
2023-01-23T09:13:26.756Z,2.49
2023-01-23T09:15:58.341Z,2.40
2023-01-23T09:18:29.978Z,2.37
2023-01-23T09:21:02.328Z,2.36
2023-01-23T09:23:34.557Z,2.37
2023-01-23T09:26:06.512Z,2.41
2023-01-23T09:28:38.912Z,2.46
2023-01-23T09:31:11.542Z,2.53
2023-01-23T09:33:43.312Z,2.57
2023-01-23T09:36:14.663Z,2.61
2023-01-23T09:38:46.027Z,2.66
2023-01-23T09:41:18.941Z,2.71
2023-01-23T09:43:55.265Z,2.74
2023-01-23T09:46:28.085Z,2.76
2023-01-23T09:49:00.936Z,2.78
2023-01-23T09:51:35.872Z,2.81
2023-01-23T09:54:08.894Z,2.83
2023-01-23T09:56:42.456Z,2.85
2023-01-23T09:59:15.342Z,2.82
2023-01-23T10:01:46.784Z,2.80
2023-01-23T10:04:18.250Z,2.83
2023-01-23T10:07:06.986Z,2.86
2023-01-23T10:09:41.876Z,2.85
2023-01-23T10:12:15.249Z,2.87
2023-01-23T10:15:01.785Z,2.87
2023-01-23T10:17:35.311Z,2.86
2023-01-23T10:20:25.371Z,2.86
2023-01-23T10:22:59.315Z,2.85
2023-01-23T10:25:32.877Z,2.86
2023-01-23T10:28:11.482Z,2.84
2023-01-23T10:30:42.930Z,2.85
2023-01-23T10:33:15.283Z,2.93
2023-01-23T10:35:50.820Z,2.99
2023-01-23T10:38:32.506Z,3.00
2023-01-23T10:41:22.380Z,2.95
2023-01-23T10:43:55.148Z,2.92
2023-01-23T10:46:47.682Z,2.94
2023-01-23T10:49:30.930Z,2.88
2023-01-23T10:52:01.765Z,2.82
2023-01-23T10:54:33.562Z,2.75
2023-01-23T10:57:05.396Z,2.74
2023-01-23T10:59:37.334Z,2.72
2023-01-23T11:02:28.168Z,2.71
2023-01-23T11:05:00.442Z,2.71
2023-01-23T11:07:32.062Z,2.71
2023-01-23T11:10:04.632Z,2.69
2023-01-23T11:12:36.109Z,2.71
2023-01-23T11:15:23.731Z,2.71
2023-01-23T11:17:55.156Z,2.72
2023-01-23T11:20:28.384Z,2.73
2023-01-23T11:23:06.451Z,2.74
2023-01-23T11:25:39.214Z,2.72
2023-01-23T11:28:23.774Z,2.69
2023-01-23T11:31:11.538Z,2.67
2023-01-23T11:33:47.875Z,2.70
2023-01-23T11:36:33.647Z,2.71
2023-01-23T11:39:06.107Z,2.71
2023-01-23T11:41:36.974Z,2.71
2023-01-23T11:44:10.034Z,2.70
2023-01-23T11:47:07.797Z,2.68
2023-01-23T11:49:45.729Z,2.67
2023-01-23T11:52:22.611Z,2.62
2023-01-23T11:54:57.906Z,2.59
2023-01-23T11:57:30.931Z,2.54
2023-01-23T12:00:08.411Z,2.54
2023-01-23T12:02:46.520Z,2.54
2023-01-23T12:05:37.062Z,2.52
2023-01-23T12:08:11.484Z,2.48
2023-01-23T12:10:46.571Z,2.43
2023-01-23T12:13:20.294Z,2.45
2023-01-23T12:16:00.153Z,2.47
2023-01-23T12:18:34.941Z,2.50
2023-01-23T12:21:07.218Z,2.50
2023-01-23T12:23:42.647Z,2.49
2023-01-23T12:26:15.114Z,2.47
2023-01-23T12:28:51.520Z,2.48
2023-01-23T12:31:27.561Z,2.51
2023-01-23T12:34:21.827Z,2.51
2023-01-23T12:37:11.836Z,2.51
2023-01-23T12:39:49.588Z,2.54
2023-01-23T12:42:21.807Z,2.54
2023-01-23T12:44:57.449Z,2.52
2023-01-23T12:47:29.067Z,2.48
2023-01-23T12:50:00.258Z,2.45
2023-01-23T12:52:31.800Z,2.44
2023-01-23T12:55:04.343Z,2.42
2023-01-23T13:00:39.757Z,2.27
2023-01-23T13:03:15.378Z,2.23
2023-01-23T13:05:48.624Z,2.23
2023-01-23T13:08:21.546Z,2.21
2023-01-23T13:11:15.768Z,2.21
2023-01-23T13:13:47.012Z,2.21
2023-01-23T13:16:18.364Z,2.23
2023-01-23T13:19:16.111Z,2.25
2023-01-23T13:22:04.808Z,2.26
2023-01-23T13:25:01.589Z,2.24
2023-01-23T13:27:42.887Z,2.23
2023-01-23T13:30:33.121Z,2.20
2023-01-23T13:33:26.887Z,2.21
2023-01-23T13:35:59.834Z,2.19
2023-01-23T13:38:40.704Z,2.17
2023-01-23T13:41:27.659Z,2.16
2023-01-23T13:44:00.111Z,2.17
2023-01-23T13:46:32.297Z,2.15
2023-01-23T14:22:16.604Z,2.17
2023-01-23T14:24:48.532Z,2.15
2023-01-23T14:27:29.530Z,2.14
2023-01-23T14:30:02.168Z,2.11
2023-01-23T14:32:34.809Z,2.10
2023-01-23T14:35:06.512Z,2.11
2023-01-23T14:37:37.415Z,2.11
2023-01-23T14:40:20.854Z,2.11
2023-01-23T14:42:58.327Z,2.15
2023-01-23T14:45:33.206Z,2.16
2023-01-23T14:48:06.975Z,2.17
2023-01-23T14:50:39.351Z,2.18
2023-01-23T14:53:13.651Z,2.14
2023-01-23T14:55:46.528Z,2.08
2023-01-23T14:58:22.459Z,2.08
2023-01-23T15:00:53.788Z,2.10
2023-01-23T15:03:37.631Z,2.10
2023-01-23T15:06:10.171Z,2.12
2023-01-23T15:08:41.009Z,2.11
2023-01-23T15:11:13.620Z,2.10
2023-01-23T15:13:50.464Z,2.06
2023-01-23T15:16:22.004Z,2.05
2023-01-23T15:18:57.341Z,2.03
2023-01-23T15:21:29.877Z,2.03
2023-01-23T15:24:19.384Z,2.05
2023-01-23T15:27:00.498Z,2.04
2023-01-23T15:29:31.839Z,2.03
2023-01-23T15:32:02.995Z,2.00
2023-01-23T15:34:34.515Z,1.98
2023-01-23T15:37:06.760Z,1.98
2023-01-23T15:39:38.776Z,2.00
2023-01-23T15:42:23.230Z,2.01
2023-01-23T15:44:55.979Z,2.02
2023-01-23T15:47:26.779Z,2.04
2023-01-23T15:50:01.611Z,2.03
2023-01-23T15:52:38.334Z,1.98
2023-01-23T15:55:11.378Z,1.92
2023-01-23T15:57:43.380Z,1.92
2023-01-23T16:00:18.417Z,1.94
2023-01-23T16:02:56.797Z,1.93
2023-01-23T16:05:29.127Z,1.94
2023-01-23T16:08:01.320Z,1.96
2023-01-23T16:10:33.144Z,1.99
2023-01-23T16:13:04.210Z,1.98
2023-01-23T16:15:35.608Z,1.96
2023-01-23T16:18:06.681Z,1.95
2023-01-23T16:20:40.460Z,1.97
2023-01-23T16:23:15.602Z,1.99
2023-01-23T16:25:46.929Z,1.98
2023-01-23T16:28:19.569Z,1.97
2023-01-23T16:30:51.880Z,1.95
2023-01-23T16:33:22.932Z,1.94
2023-01-23T16:35:55.509Z,1.97
2023-01-23T16:38:27.902Z,1.96
2023-01-23T16:40:59.829Z,1.91
2023-01-23T16:43:30.842Z,1.86
2023-01-23T16:46:02.552Z,1.84
2023-01-23T16:48:33.673Z,1.87
2023-01-23T16:51:04.958Z,1.90
2023-01-23T16:53:36.556Z,1.92
2023-01-23T16:56:08.034Z,1.89
2023-01-23T16:58:40.539Z,1.90
2023-01-23T17:01:13.718Z,1.91
2023-01-23T17:03:46.864Z,1.93
2023-01-23T17:06:18.003Z,1.97
2023-01-23T17:08:50.294Z,2.01
2023-01-23T17:11:22.190Z,2.03
2023-01-23T17:13:54.539Z,2.04
2023-01-23T17:16:27.929Z,2.03
2023-01-23T17:19:00.681Z,2.05
2023-01-23T17:21:32.635Z,2.09
2023-01-23T17:24:05.171Z,2.12
2023-01-23T17:26:36.454Z,2.12
2023-01-23T17:29:07.599Z,2.10
2023-01-23T17:31:38.544Z,2.05
2023-01-23T17:34:11.138Z,2.04
2023-01-23T17:36:41.922Z,2.02
2023-01-23T17:39:13.087Z,2.03
2023-01-23T17:41:43.991Z,2.05
2023-01-23T17:44:15.324Z,2.06
2023-01-23T17:46:46.407Z,2.07
2023-01-23T17:49:26.067Z,2.09
2023-01-23T17:51:56.869Z,2.09
2023-01-23T17:54:28.517Z,2.07
2023-01-23T17:56:59.370Z,2.06
2023-01-23T17:59:30.140Z,2.03
2023-01-23T18:02:01.001Z,1.98
2023-01-23T18:04:32.151Z,1.94
2023-01-23T18:07:03.883Z,1.91
2023-01-23T18:09:34.806Z,1.90
2023-01-23T18:12:07.904Z,1.90
2023-01-23T18:14:43.840Z,1.89
2023-01-23T18:17:20.828Z,1.90
2023-01-23T18:19:54.142Z,1.91
2023-01-23T18:22:25.603Z,1.89
2023-01-23T18:24:59.919Z,1.87
2023-01-23T18:27:30.854Z,1.82
2023-01-23T18:30:11.564Z,1.76
2023-01-23T18:33:00.331Z,1.74
2023-01-23T18:35:33.818Z,1.73
2023-01-23T18:38:07.570Z,1.75
2023-01-23T18:40:40.247Z,1.77
2023-01-23T18:43:16.353Z,1.76
2023-01-23T18:45:48.265Z,1.73
2023-01-23T18:48:25.775Z,1.69
2023-01-23T18:51:02.126Z,1.67
2023-01-23T18:53:37.117Z,1.64
2023-01-23T18:56:10.367Z,1.61
2023-01-23T18:58:44.415Z,1.61
2023-01-23T19:01:16.591Z,1.61
2023-01-23T19:03:47.800Z,1.61
2023-01-23T19:06:20.160Z,1.64
2023-01-23T19:08:51.568Z,1.67
2023-01-23T19:11:25.821Z,1.65
2023-01-23T19:13:59.874Z,1.62
2023-01-23T19:16:32.025Z,1.57
2023-01-23T19:19:15.289Z,1.56
2023-01-23T19:21:47.569Z,1.56
2023-01-23T19:24:19.816Z,1.59
2023-01-23T19:26:51.718Z,1.64
2023-01-23T19:29:23.402Z,1.67
2023-01-23T19:32:04.638Z,1.72
2023-01-23T19:34:39.037Z,1.75
2023-01-23T19:37:14.799Z,1.72
2023-01-23T19:39:46.097Z,1.69
2023-01-23T19:42:19.820Z,1.67
2023-01-23T19:44:59.291Z,1.67
2023-01-23T19:47:32.445Z,1.65
2023-01-23T19:50:03.895Z,1.60
2023-01-23T19:52:34.834Z,1.57
2023-01-23T19:55:05.964Z,1.57
2023-01-23T19:57:36.978Z,1.59
2023-01-23T20:00:09.974Z,1.61
2023-01-23T20:02:40.842Z,1.62
2023-01-23T20:05:12.126Z,1.63
2023-01-23T20:07:43.030Z,1.61
2023-01-23T20:10:14.515Z,1.60
2023-01-23T20:12:46.639Z,1.64
2023-01-23T20:15:17.569Z,1.65
2023-01-23T20:17:48.321Z,1.65
2023-01-23T20:20:19.670Z,1.66
2023-01-23T20:22:50.655Z,1.66
2023-01-23T20:25:21.914Z,1.64
2023-01-23T20:27:53.501Z,1.58
2023-01-23T20:30:24.819Z,1.56
2023-01-23T20:35:31.702Z,1.55
2023-01-23T20:38:02.669Z,1.57
2023-01-23T20:40:33.699Z,1.57
2023-01-23T20:43:04.582Z,1.54
2023-01-23T20:45:35.902Z,1.54
2023-01-23T20:48:07.398Z,1.54
2023-01-23T20:50:39.471Z,1.54
2023-01-23T20:53:28.163Z,1.54
2023-01-23T20:55:59.768Z,1.54
2023-01-23T20:58:48.247Z,1.56
2023-01-23T21:01:19.505Z,1.60
2023-01-23T21:03:50.581Z,1.64
2023-01-23T21:06:21.299Z,1.66
2023-01-23T21:08:52.098Z,1.65
2023-01-23T21:11:24.145Z,1.60
2023-01-23T21:13:55.040Z,1.55
2023-01-23T21:16:27.487Z,1.53
2023-01-23T21:18:58.282Z,1.51
2023-01-23T21:21:29.161Z,1.52
2023-01-23T21:23:59.976Z,1.54
2023-01-23T21:26:31.363Z,1.59
2023-01-23T21:29:02.324Z,1.62
2023-01-23T21:31:34.031Z,1.61
2023-01-23T21:34:05.486Z,1.61
2023-01-23T21:36:36.227Z,1.63
2023-01-23T21:39:09.432Z,1.67
2023-01-23T21:41:41.156Z,1.67
2023-01-23T21:44:12.192Z,1.62
2023-01-23T21:46:43.067Z,1.57
2023-01-23T21:49:13.894Z,1.56
2023-01-23T21:51:45.160Z,1.57
2023-01-23T21:54:15.964Z,1.54
2023-01-23T21:56:46.781Z,1.47
2023-01-23T21:59:17.680Z,1.41
2023-01-23T22:01:48.488Z,1.35
2023-01-23T22:04:22.664Z,1.32
2023-01-23T22:06:55.447Z,1.33
2023-01-23T22:09:27.139Z,1.35
2023-01-23T22:11:57.883Z,1.39
2023-01-23T22:14:28.716Z,1.38
2023-01-23T22:16:59.580Z,1.37
2023-01-23T22:19:30.373Z,1.36
2023-01-23T22:22:01.235Z,1.36
2023-01-23T22:24:32.079Z,1.37
2023-01-23T22:27:04.166Z,1.41
2023-01-23T22:29:35.109Z,1.43
2023-01-23T22:32:06.082Z,1.39
2023-01-23T22:34:37.318Z,1.37
2023-01-23T22:37:08.048Z,1.37
2023-01-23T22:39:38.833Z,1.35
2023-01-23T22:42:09.580Z,1.34
2023-01-23T22:44:40.534Z,1.33
2023-01-23T22:47:11.380Z,1.32
2023-01-23T22:49:44.236Z,1.33
2023-01-23T22:52:15.120Z,1.31
2023-01-23T22:54:45.924Z,1.29
2023-01-23T22:57:16.579Z,1.31
2023-01-23T22:59:48.521Z,1.33
2023-01-23T23:02:20.335Z,1.33
2023-01-23T23:04:51.906Z,1.34
2023-01-23T23:07:22.722Z,1.37
2023-01-23T23:09:53.543Z,1.39
2023-01-23T23:12:24.367Z,1.37
2023-01-23T23:14:55.227Z,1.31
2023-01-23T23:17:27.076Z,1.28
2023-01-23T23:19:58.025Z,1.28
2023-01-23T23:22:28.939Z,1.26
2023-01-23T23:24:59.832Z,1.22
2023-01-23T23:27:30.546Z,1.21
2023-01-23T23:30:01.364Z,1.21
2023-01-23T23:32:32.241Z,1.20
2023-01-23T23:35:03.234Z,1.18
2023-01-23T23:37:33.920Z,1.15
2023-01-23T23:40:04.769Z,1.13
2023-01-23T23:42:35.706Z,1.13
2023-01-23T23:45:08.734Z,1.15
2023-01-23T23:47:39.491Z,1.16
2023-01-23T23:50:11.842Z,1.18
2023-01-23T23:52:42.690Z,1.23
2023-01-23T23:55:13.601Z,1.25
2023-01-23T23:57:44.365Z,1.26
